Terminal Aerodrome Forecast
Issued by NWS

Home | Current Version | Previous Version | Text Only | Print | Product List | Glossary On
Versions: 1 2 3 4 5 6 7 8 9 10 11 12 13 14 15 16
000
FTUS43 KILX 161120
TAFCMI
TAF
KCMI 161120Z 1612/1712 09004KT 5SM BR SCT040 BKN200
     FM161400 16006KT P6SM BKN140
     FM161700 15009KT P6SM VCTS SCT045CB BKN080
     FM162300 18009KT P6SM BKN080
     FM170600 17007KT 5SM -SHRA VCTS OVC060CB
     FM171100 20008KT P6SM BKN045=

USA.gov is the U.S. government's official web portal to all federal, state and local government web resources and services.